Time;durP1;ratioP1;P1;durP2;ratioP2;P2;SDS_P1;SDS_P2;PMS_P1;PMS_P2;Temp;Humidity;BMP_temperature;BMP_pressure;BME280_temperature;BME280_humidity;BME280_pressure;Samples;Min_cycle;Max_cycle;Signal;HPM_P1;HPM_P2
2021/01/14 00:01:07;;;;;;;10.23;4.70;;;;;;;0.93;89.63;95694.88;5106766;28;20079;-70
2021/01/14 00:03:33;;;;;;;11.93;5.10;;;;;;;0.97;89.54;95690.59;5107026;28;20087;-70
2021/01/14 00:05:59;;;;;;;12.27;5.68;;;;;;;1.05;89.66;95708.81;5106270;28;20387;-69
2021/01/14 00:08:26;;;;;;;12.60;5.55;;;;;;;1.12;89.58;95700.47;5106385;28;20054;-70
2021/01/14 00:10:52;;;;;;;13.63;5.82;;;;;;;1.24;89.45;95693.69;5106540;28;20066;-70
2021/01/14 00:13:17;;;;;;;10.43;5.30;;;;;;;1.26;89.00;95694.25;5107136;28;20231;-70
2021/01/14 00:15:43;;;;;;;13.07;5.82;;;;;;;1.30;89.00;95698.00;5106636;28;20052;-70
2021/01/14 00:18:09;;;;;;;10.88;5.45;;;;;;;1.33;88.78;95706.56;5106591;28;20048;-70
2021/01/14 00:20:35;;;;;;;14.30;6.25;;;;;;;1.24;89.00;95704.44;5110424;28;20093;-70
2021/01/14 00:23:01;;;;;;;12.95;5.93;;;;;;;1.23;89.41;95702.81;5111783;28;20410;-70
2021/01/14 00:25:28;;;;;;;13.18;6.22;;;;;;;1.25;89.38;95708.75;5110235;28;20055;-70
2021/01/14 00:27:55;;;;;;;12.45;5.93;;;;;;;1.27;89.29;95708.47;5105267;28;20048;-70
2021/01/14 00:30:27;;;;;;;10.65;5.55;;;;;;;1.27;89.31;95711.13;5110417;28;20142;-70
2021/01/14 00:32:53;;;;;;;13.52;6.10;;;;;;;1.27;89.07;95700.41;5114144;28;20039;-71
2021/01/14 00:35:19;;;;;;;9.45;5.22;;;;;;;1.25;89.07;95716.78;5113738;28;20047;-70
2021/01/14 00:37:51;;;;;;;11.93;5.65;;;;;;;1.24;89.08;95733.13;5113641;28;20047;-70
2021/01/14 00:40:17;;;;;;;12.15;6.03;;;;;;;1.18;89.16;95740.41;5114052;28;20039;-70
2021/01/14 00:42:44;;;;;;;12.82;6.70;;;;;;;1.16;89.12;95731.84;5113375;28;20047;-70
2021/01/14 00:45:11;;;;;;;12.93;6.70;;;;;;;1.10;89.40;95738.28;5113588;28;20066;-70
2021/01/14 00:47:37;;;;;;;14.07;7.30;;;;;;;1.12;89.28;95736.13;5113262;28;20112;-70
2021/01/14 00:50:05;;;;;;;12.98;6.93;;;;;;;1.12;89.35;95725.41;5113743;28;20048;-70
2021/01/14 00:52:31;;;;;;;12.43;7.28;;;;;;;1.10;89.30;95737.47;5113498;28;20073;-70
2021/01/14 00:54:58;;;;;;;15.15;7.70;;;;;;;1.18;89.11;95737.72;5113737;28;20047;-70
2021/01/14 00:57:24;;;;;;;10.60;6.82;;;;;;;1.23;88.89;95736.91;5109111;28;20516;-70
2021/01/14 00:59:50;;;;;;;13.70;7.15;;;;;;;1.28;88.37;95740.34;5093040;28;20139;-70
2021/01/14 01:02:16;;;;;;;12.85;7.50;;;;;;;1.34;88.07;95748.38;5091644;28;20044;-71
2021/01/14 01:04:42;;;;;;;13.95;7.68;;;;;;;1.34;88.12;95732.28;5093561;28;20044;-70
2021/01/14 01:07:08;;;;;;;15.43;7.93;;;;;;;1.33;88.20;95744.91;5093325;28;20055;-70
2021/01/14 01:09:34;;;;;;;14.00;7.80;;;;;;;1.41;87.90;95730.94;5092500;28;20048;-70
2021/01/14 01:12:00;;;;;;;15.68;8.23;;;;;;;1.37;87.86;95734.44;5093566;28;20519;-70
2021/01/14 01:14:26;;;;;;;12.68;7.30;;;;;;;1.45;87.59;95733.84;5092156;28;20044;-70
2021/01/14 01:16:54;;;;;;;15.57;8.02;;;;;;;1.47;87.27;95743.25;5093194;28;20132;-70
2021/01/14 01:19:20;;;;;;;15.13;7.95;;;;;;;1.40;86.87;95728.50;5095108;28;20048;-70
2021/01/14 01:21:46;;;;;;;16.85;8.15;;;;;;;1.43;86.85;95741.38;5113140;28;20497;-70
2021/01/14 01:24:13;;;;;;;12.95;6.90;;;;;;;1.44;86.23;95738.41;5112574;28;20050;-69
2021/01/14 01:26:38;;;;;;;14.77;7.43;;;;;;;1.38;85.51;95738.72;5112171;28;20042;-70
2021/01/14 01:29:05;;;;;;;12.52;6.18;;;;;;;1.23;84.67;95753.78;5110821;28;20059;-69
2021/01/14 01:31:32;;;;;;;16.63;7.72;;;;;;;1.24;84.44;95768.78;5111378;28;20047;-70
2021/01/14 01:33:58;;;;;;;13.57;6.40;;;;;;;1.24;84.22;95766.13;5113564;28;20575;-70
2021/01/14 01:36:24;;;;;;;9.90;5.50;;;;;;;1.20;83.44;95762.41;5111959;28;20434;-70
2021/01/14 01:38:50;;;;;;;10.82;5.90;;;;;;;1.18;83.51;95745.75;5113319;28;20065;-70
2021/01/14 01:41:16;;;;;;;9.98;5.68;;;;;;;1.17;83.00;95748.72;5111942;28;20399;-70
2021/01/14 01:43:42;;;;;;;11.73;5.93;;;;;;;1.22;83.00;95746.81;5113034;28;20051;-69
2021/01/14 01:46:08;;;;;;;10.52;5.82;;;;;;;1.23;82.75;95753.78;5112273;28;20627;-70
2021/01/14 01:48:34;;;;;;;11.20;5.18;;;;;;;1.22;82.39;95757.56;5112565;28;20089;-70
2021/01/14 01:51:01;;;;;;;9.70;5.07;;;;;;;1.20;82.11;95759.72;5112892;28;20044;-69
2021/01/14 01:53:28;;;;;;;12.13;4.97;;;;;;;1.17;81.77;95759.44;5111875;28;20482;-70
2021/01/14 01:55:54;;;;;;;11.68;5.50;;;;;;;1.17;81.54;95744.16;5113072;28;20043;-70
2021/01/14 01:58:21;;;;;;;9.15;5.10;;;;;;;1.16;81.34;95704.22;5109794;28;20039;-70
2021/01/14 02:00:48;;;;;;;11.93;5.32;;;;;;;1.15;80.93;95708.78;5113237;28;20082;-70
2021/01/14 02:03:14;;;;;;;10.48;5.72;;;;;;;1.09;80.84;95719.78;5093168;28;20570;-70
2021/01/14 02:05:39;;;;;;;13.88;5.93;;;;;;;1.06;80.50;95723.81;5112756;28;20043;-70
2021/01/14 02:08:19;;;;;;;11.95;5.13;;;;;;;1.07;80.66;95730.78;5111559;28;20536;-70
2021/01/14 02:10:52;;;;;;;14.90;5.70;;;;;;;1.04;79.92;95723.28;5112266;28;20142;-69
2021/01/14 02:13:26;;;;;;;7.43;4.35;;;;;;;1.09;79.32;95736.66;5112020;28;20051;-70
2021/01/14 02:15:53;;;;;;;12.45;5.60;;;;;;;1.10;79.11;95726.72;5111587;28;20046;-70
2021/01/14 02:18:20;;;;;;;10.45;5.15;;;;;;;1.08;79.46;95740.41;5112245;28;20043;-71
2021/01/14 02:20:49;;;;;;;9.30;4.78;;;;;;;0.99;79.84;95731.31;5111515;28;20040;-70
2021/01/14 02:23:21;;;;;;;13.95;5.55;;;;;;;1.03;79.71;95743.91;5111869;28;20047;-70
2021/01/14 02:26:01;;;;;;;9.50;4.93;;;;;;;1.00;79.42;95749.03;5111499;28;20051;-69
2021/01/14 02:28:28;;;;;;;14.23;5.90;;;;;;;0.96;79.93;95759.50;5098390;28;20058;-70
2021/01/14 02:30:55;;;;;;;11.65;5.25;;;;;;;1.06;79.79;95750.63;5091615;28;20052;-69
2021/01/14 02:33:21;;;;;;;11.50;5.50;;;;;;;1.09;80.04;95757.31;5090575;28;20624;-70
2021/01/14 02:35:47;;;;;;;9.40;4.80;;;;;;;1.10;79.64;95750.88;5091859;28;20044;-69
2021/01/14 02:38:13;;;;;;;12.45;5.82;;;;;;;1.14;79.58;95754.63;5090075;28;20071;-69
2021/01/14 02:40:39;;;;;;;12.90;5.70;;;;;;;1.12;80.20;95748.72;5091971;28;20083;-70
2021/01/14 02:43:06;;;;;;;9.65;5.10;;;;;;;1.23;80.09;95752.97;5090197;28;20048;-70
2021/01/14 02:45:33;;;;;;;13.52;5.97;;;;;;;1.24;80.11;95765.31;5091644;28;20556;-69
2021/01/14 02:48:00;;;;;;;13.90;5.82;;;;;;;1.23;80.29;95758.34;5090937;28;20048;-70
2021/01/14 02:50:28;;;;;;;13.57;6.10;;;;;;;1.24;80.50;95754.59;5102616;28;20048;-70
2021/01/14 02:52:59;;;;;;;9.20;4.90;;;;;;;1.26;80.47;95755.94;5111424;28;20540;-69
2021/01/14 02:55:26;;;;;;;14.75;6.30;;;;;;;1.32;80.45;95751.34;5110678;28;20040;-69
2021/01/14 02:57:53;;;;;;;11.63;6.15;;;;;;;1.26;80.55;95758.63;5109952;28;20048;-69
2021/01/14 03:00:20;;;;;;;13.60;6.40;;;;;;;1.31;80.89;95763.16;5110122;28;20054;-69
2021/01/14 03:02:46;;;;;;;10.00;5.75;;;;;;;1.32;80.83;95756.72;5111842;28;20044;-70
2021/01/14 03:05:12;;;;;;;9.27;5.63;;;;;;;1.30;80.46;95759.69;5110182;28;20043;-69
2021/01/14 03:07:38;;;;;;;10.45;5.43;;;;;;;1.29;80.73;95760.72;5111844;28;20130;-70
2021/01/14 03:10:06;;;;;;;10.82;5.75;;;;;;;1.22;80.72;95768.28;5110043;28;20036;-70
2021/01/14 03:12:32;;;;;;;12.75;6.05;;;;;;;1.31;80.67;95773.91;5111408;28;20078;-70
2021/01/14 03:14:58;;;;;;;12.00;4.95;;;;;;;1.30;80.75;95775.78;5110901;28;20506;-70
2021/01/14 03:17:24;;;;;;;13.93;6.30;;;;;;;1.24;80.71;95787.56;5110461;28;20080;-70
2021/01/14 03:19:51;;;;;;;9.20;4.97;;;;;;;1.26;80.75;95793.47;5111022;28;20043;-70
2021/01/14 03:22:17;;;;;;;13.13;5.85;;;;;;;1.39;80.69;95792.09;5110001;28;20039;-69
2021/01/14 03:24:43;;;;;;;10.95;5.68;;;;;;;1.37;80.59;95801.50;5111436;28;20048;-70
2021/01/14 03:27:09;;;;;;;13.13;5.97;;;;;;;1.37;80.67;95786.22;5094626;28;20056;-69
2021/01/14 03:29:35;;;;;;;11.45;5.68;;;;;;;1.32;79.87;95798.84;5091033;28;20407;-70
2021/01/14 03:32:01;;;;;;;43.35;12.02;;;;;;;1.25;79.75;95794.56;5088630;28;20043;-69
2021/01/14 03:34:28;;;;;;;10.63;5.20;;;;;;;1.29;79.95;95805.53;5090582;28;20384;-69
2021/01/14 03:36:57;;;;;;;10.15;5.05;;;;;;;1.19;78.78;95795.63;5090094;28;20043;-69
2021/01/14 03:39:24;;;;;;;10.45;5.03;;;;;;;1.21;79.45;95798.88;5089914;28;20052;-69
2021/01/14 03:41:51;;;;;;;11.38;4.82;;;;;;;1.27;79.27;95797.78;5089559;28;20051;-70
2021/01/14 03:44:17;;;;;;;12.40;5.40;;;;;;;1.23;79.01;95812.78;5089620;28;20089;-69
2021/01/14 03:46:46;;;;;;;10.73;5.45;;;;;;;1.30;78.88;95816.00;5090141;28;20048;-69
2021/01/14 03:49:12;;;;;;;13.88;5.82;;;;;;;1.35;78.91;95825.09;5090642;28;20441;-70
2021/01/14 03:51:39;;;;;;;12.68;5.75;;;;;;;1.37;78.66;95820.28;5110763;28;20055;-69
2021/01/14 03:54:05;;;;;;;10.75;5.10;;;;;;;1.20;77.85;95829.44;5108628;28;20047;-70
2021/01/14 03:56:36;;;;;;;11.45;5.05;;;;;;;1.20;78.19;95821.41;5111335;28;20038;-69
2021/01/14 03:59:02;;;;;;;10.48;5.40;;;;;;;1.20;78.38;95840.16;5109704;28;20055;-70
2021/01/14 04:01:28;;;;;;;13.25;5.50;;;;;;;1.28;78.36;95853.00;5110632;28;20036;-70
2021/01/14 04:03:54;;;;;;;12.38;5.07;;;;;;;1.18;77.66;95842.31;5093605;28;20082;-69
2021/01/14 04:06:29;;;;;;;13.48;5.70;;;;;;;1.20;78.34;95837.50;5088844;28;20047;-70
2021/01/14 04:08:56;;;;;;;10.07;5.20;;;;;;;1.14;78.69;95830.50;5090395;28;20040;-70
2021/01/14 04:11:22;;;;;;;15.88;5.95;;;;;;;1.17;78.24;95832.66;5089025;28;20052;-70
2021/01/14 04:13:48;;;;;;;14.63;5.75;;;;;;;1.11;77.43;95833.75;5090562;28;20048;-69
2021/01/14 04:16:14;;;;;;;12.32;5.57;;;;;;;1.13;78.10;95831.59;5088781;28;20052;-70
2021/01/14 04:18:40;;;;;;;11.27;5.53;;;;;;;1.11;78.32;95841.78;5090722;28;20127;-70
2021/01/14 04:21:06;;;;;;;12.73;6.28;;;;;;;1.05;78.65;95832.16;5106529;28;20092;-70
2021/01/14 04:23:32;;;;;;;18.08;7.18;;;;;;;0.99;79.13;95827.84;5110186;28;20043;-69
2021/01/14 04:25:58;;;;;;;11.18;5.88;;;;;;;0.96;79.69;95842.59;5109668;28;20043;-70
2021/01/14 04:28:24;;;;;;;16.80;6.90;;;;;;;1.00;79.79;95850.91;5109701;28;20547;-70
2021/01/14 04:30:50;;;;;;;12.98;6.43;;;;;;;0.99;79.51;95838.56;5110344;28;20070;-69
2021/01/14 04:33:16;;;;;;;16.60;6.55;;;;;;;1.00;79.33;95856.28;5098008;28;20438;-69
2021/01/14 04:35:44;;;;;;;11.75;5.60;;;;;;;0.95;78.98;95853.59;5090237;28;20075;-69
2021/01/14 04:38:10;;;;;;;15.93;6.57;;;;;;;0.93;78.98;95856.53;5088709;28;20063;-70
2021/01/14 04:40:36;;;;;;;14.65;6.40;;;;;;;0.94;79.14;95865.38;5090251;28;20071;-70
2021/01/14 04:43:04;;;;;;;13.57;6.10;;;;;;;0.96;79.00;95871.28;5088780;28;20040;-71
2021/01/14 04:45:30;;;;;;;16.92;6.80;;;;;;;0.93;79.15;95869.13;5090199;28;20048;-70
2021/01/14 04:47:56;;;;;;;14.20;7.18;;;;;;;0.94;79.27;95884.13;5089376;28;20044;-69
2021/01/14 04:50:27;;;;;;;16.60;6.95;;;;;;;0.96;78.73;95882.81;5100742;28;20043;-69
2021/01/14 04:52:55;;;;;;;14.85;6.40;;;;;;;1.00;78.68;95899.19;5110062;28;20044;-70
2021/01/14 04:55:25;;;;;;;15.90;6.80;;;;;;;0.92;78.52;95891.66;5109310;28;20059;-69
2021/01/14 04:57:52;;;;;;;13.95;6.25;;;;;;;0.93;78.51;95888.69;5110508;28;20126;-69
2021/01/14 05:00:24;;;;;;;14.88;6.55;;;;;;;0.89;79.24;95884.13;5108755;28;20054;-69
2021/01/14 05:02:57;;;;;;;13.70;6.80;;;;;;;0.93;79.37;95888.69;5102715;28;20510;-70
2021/01/14 05:05:24;;;;;;;14.75;7.45;;;;;;;0.93;79.54;95898.63;5088650;28;20048;-70
2021/01/14 05:08:03;;;;;;;17.73;7.15;;;;;;;0.98;79.34;95906.66;5093388;28;20457;-69
2021/01/14 05:10:31;;;;;;;19.25;8.20;;;;;;;1.13;78.79;95898.63;5092947;28;20038;-70
2021/01/14 05:12:57;;;;;;;16.77;6.93;;;;;;;1.13;78.30;95903.97;5074951;28;20048;-69
2021/01/14 05:15:26;;;;;;;11.35;6.43;;;;;;;1.16;78.13;95903.47;5092771;28;20102;-70
2021/01/14 05:17:52;;;;;;;16.20;6.78;;;;;;;1.07;77.42;95904.25;5092660;28;20044;-69
2021/01/14 05:20:19;;;;;;;13.80;6.55;;;;;;;1.07;77.48;95904.25;5103765;28;20055;-69
2021/01/14 05:22:47;;;;;;;14.60;7.03;;;;;;;1.09;77.30;95892.19;5112430;28;20043;-70
2021/01/14 05:25:13;;;;;;;13.45;6.57;;;;;;;1.16;76.98;95906.13;5112862;28;20267;-70
2021/01/14 05:27:39;;;;;;;15.20;7.18;;;;;;;1.19;76.66;95902.91;5112600;28;20050;-69
2021/01/14 05:30:07;;;;;;;15.07;7.15;;;;;;;1.14;76.97;95915.50;5112932;28;20050;-70
2021/01/14 05:32:38;;;;;;;16.27;7.78;;;;;;;1.10;77.13;95911.75;5107282;28;20556;-69
2021/01/14 05:35:07;;;;;;;17.83;7.70;;;;;;;1.08;77.40;95917.41;5092258;28;20040;-70
2021/01/14 05:37:36;;;;;;;17.75;7.22;;;;;;;1.11;77.21;95932.97;5092488;28;20070;-70
2021/01/14 05:40:05;;;;;;;14.35;7.15;;;;;;;1.12;77.10;95934.56;5092430;28;20056;-70
2021/01/14 05:42:31;;;;;;;13.65;6.88;;;;;;;1.11;77.17;95938.31;5093026;28;20048;-70
2021/01/14 05:45:00;;;;;;;15.93;6.97;;;;;;;1.01;76.91;95943.69;5091670;28;20040;-69
2021/01/14 05:47:27;;;;;;;15.75;7.28;;;;;;;0.92;76.82;95939.91;5092417;28;20044;-70
2021/01/14 05:49:59;;;;;;;12.70;6.30;;;;;;;0.93;76.66;95946.88;5100300;28;20495;-69
2021/01/14 05:52:26;;;;;;;18.10;7.18;;;;;;;0.89;76.85;95935.91;5112080;28;20043;-69
2021/01/14 05:54:58;;;;;;;14.60;6.97;;;;;;;0.92;77.21;95951.44;5112447;28;20052;-69
2021/01/14 05:57:29;;;;;;;19.30;8.17;;;;;;;0.99;76.41;95945.81;5112030;28;20050;-69
2021/01/14 05:59:56;;;;;;;17.50;7.25;;;;;;;0.97;76.68;95953.31;5112583;28;20043;-69
2021/01/14 06:02:30;;;;;;;20.55;7.45;;;;;;;0.96;76.71;95957.88;5107734;28;20044;-70
2021/01/14 06:04:56;;;;;;;15.43;7.32;;;;;;;0.86;76.66;95957.88;5092568;28;20059;-69
2021/01/14 06:07:24;;;;;;;17.83;7.25;;;;;;;0.83;76.87;95969.09;5090884;28;20048;-69
2021/01/14 06:09:50;;;;;;;18.33;6.85;;;;;;;0.80;76.84;95964.28;5092383;28;20484;-69
2021/01/14 06:12:16;;;;;;;12.82;6.28;;;;;;;0.82;75.93;95950.63;5072860;28;20079;-70
2021/01/14 06:14:43;;;;;;;17.15;6.97;;;;;;;0.83;75.41;95969.09;5091849;28;20116;-70
2021/01/14 06:17:10;;;;;;;11.90;5.95;;;;;;;0.77;74.23;95954.88;5090630;28;20044;-69
2021/01/14 06:19:37;;;;;;;14.18;6.30;;;;;;;0.72;74.12;95965.59;5096537;28;20039;-69
2021/01/14 06:22:04;;;;;;;13.60;5.68;;;;;;;0.73;73.95;95967.22;5111950;28;20050;-70
2021/01/14 06:24:36;;;;;;;15.50;5.82;;;;;;;0.71;73.77;95966.69;5111450;28;20036;-69
2021/01/14 06:27:10;;;;;;;15.02;5.40;;;;;;;0.69;72.77;95963.47;5111933;28;20052;-71
2021/01/14 06:29:37;;;;;;;10.88;4.72;;;;;;;0.57;71.89;95970.91;5111460;28;20096;-69
2021/01/14 06:32:08;;;;;;;14.50;5.78;;;;;;;0.65;71.97;95973.09;5110756;28;20093;-70
2021/01/14 06:34:35;;;;;;;14.75;5.60;;;;;;;0.64;72.15;95982.22;5091023;28;20098;-69
2021/01/14 06:37:10;;;;;;;15.68;5.50;;;;;;;0.59;72.46;95990.22;5091867;28;20048;-70
2021/01/14 06:39:40;;;;;;;12.63;4.75;;;;;;;0.55;72.43;95994.50;5091666;28;20051;-69
2021/01/14 06:42:16;;;;;;;14.40;5.63;;;;;;;0.51;73.34;95999.56;5091204;28;20043;-69
2021/01/14 06:44:49;;;;;;;12.73;5.47;;;;;;;0.49;73.21;95995.56;5091899;28;20521;-69
2021/01/14 06:47:31;;;;;;;14.43;5.28;;;;;;;0.44;73.47;95998.22;5088442;28;20048;-69
2021/01/14 06:50:24;;;;;;;14.57;5.72;;;;;;;0.43;73.47;96007.31;5099543;28;20049;-70
2021/01/14 06:52:52;;;;;;;14.02;5.97;;;;;;;0.38;74.35;96015.34;5111564;28;20505;-69
2021/01/14 06:55:20;;;;;;;14.88;6.03;;;;;;;0.42;74.24;96017.25;5110392;28;20400;-69
2021/01/14 06:58:03;;;;;;;10.95;5.28;;;;;;;0.43;74.72;96020.72;5111733;28;20048;-69
2021/01/14 07:00:30;;;;;;;16.20;6.78;;;;;;;0.40;74.89;96018.56;5110500;28;20039;-70
2021/01/14 07:03:24;;;;;;;13.73;5.97;;;;;;;0.38;75.11;96028.72;5103388;28;20055;-70
2021/01/14 07:06:07;;;;;;;12.13;5.88;;;;;;;0.35;75.61;96026.56;5090456;28;20044;-70
2021/01/14 07:08:36;;;;;;;18.05;7.10;;;;;;;0.31;76.37;96042.34;5090575;28;20044;-70
2021/01/14 07:11:11;;;;;;;13.05;5.85;;;;;;;0.37;76.05;96054.72;5090480;28;20410;-70
2021/01/14 07:13:39;;;;;;;14.48;6.43;;;;;;;0.35;76.40;96064.06;5090214;28;20055;-69
2021/01/14 07:16:06;;;;;;;14.07;6.63;;;;;;;0.37;76.36;96059.28;5090817;28;20052;-69
2021/01/14 07:18:34;;;;;;;12.98;5.97;;;;;;;0.50;76.27;96064.94;5089806;28;20048;-70
2021/01/14 07:21:08;;;;;;;20.75;7.60;;;;;;;0.57;76.49;96062.00;5107812;28;20490;-70
2021/01/14 07:23:39;;;;;;;12.43;5.97;;;;;;;0.58;75.47;96069.00;5110605;28;20514;-70
2021/01/14 07:26:06;;;;;;;15.07;6.18;;;;;;;0.50;74.35;96077.53;5110315;28;20048;-69
2021/01/14 07:28:35;;;;;;;12.75;5.65;;;;;;;0.55;74.37;96090.16;5110135;28;20039;-70
2021/01/14 07:31:18;;;;;;;16.80;5.78;;;;;;;0.56;73.11;96099.78;5110279;28;20120;-69
2021/01/14 07:33:44;;;;;;;11.15;5.35;;;;;;;0.56;73.59;96097.13;5091383;28;20071;-70
2021/01/14 07:36:22;;;;;;;14.25;6.13;;;;;;;0.55;74.28;96109.72;5089163;28;20090;-70
2021/01/14 07:38:50;;;;;;;15.85;6.05;;;;;;;0.63;74.38;96114.59;5090615;28;20406;-69
2021/01/14 07:41:17;;;;;;;14.15;5.95;;;;;;;0.56;75.03;96115.88;5089388;28;20402;-69
2021/01/14 07:43:45;;;;;;;16.75;7.03;;;;;;;0.40;74.58;96120.34;5090172;28;20044;-69
2021/01/14 07:46:16;;;;;;;14.13;5.90;;;;;;;0.35;74.62;96133.69;5089727;28;20445;-69
2021/01/14 07:48:43;;;;;;;18.67;6.78;;;;;;;0.37;74.43;96134.25;5089642;28;20043;-74
2021/01/14 07:51:09;;;;;;;14.88;5.57;;;;;;;0.47;73.43;96134.28;5107935;28;20055;-69
2021/01/14 07:53:36;;;;;;;21.75;7.38;;;;;;;0.38;73.37;96150.06;5108993;28;20543;-69
2021/01/14 07:56:23;;;;;;;19.05;5.90;;;;;;;0.38;71.76;96143.91;5108366;28;20043;-70
2021/01/14 07:58:53;;;;;;;11.70;4.63;;;;;;;0.38;71.46;96139.34;5109026;28;20047;-69
2021/01/14 08:01:19;;;;;;;22.80;6.13;;;;;;;0.36;71.72;96141.47;5108517;28;20043;-70
2021/01/14 08:03:45;;;;;;;12.18;5.13;;;;;;;0.36;71.53;96141.47;5090970;28;20099;-70
2021/01/14 08:06:23;;;;;;;16.55;5.22;;;;;;;0.41;71.55;96146.84;5089443;28;20089;-71
2021/01/14 08:08:58;;;;;;;15.38;4.88;;;;;;;0.43;71.49;96151.97;5089950;28;20048;-71
2021/01/14 08:11:26;;;;;;;13.73;5.32;;;;;;;0.51;71.51;96154.16;5088954;28;20451;-71
2021/01/14 08:14:16;;;;;;;15.27;5.03;;;;;;;0.59;71.01;96167.06;5090700;28;20048;-70
2021/01/14 08:16:47;;;;;;;13.38;5.13;;;;;;;0.61;71.83;96172.16;5089425;28;20040;-71
2021/01/14 08:19:33;;;;;;;14.35;5.10;;;;;;;0.66;72.25;96173.00;5091290;28;20146;-71
2021/01/14 08:22:06;;;;;;;11.90;5.30;;;;;;;0.61;72.23;96175.66;5110753;28;20468;-70
2021/01/14 08:24:37;;;;;;;24.55;7.88;;;;;;;0.53;72.39;96178.84;5108858;28;20590;-70
2021/01/14 08:27:05;;;;;;;12.90;5.18;;;;;;;0.49;71.73;96183.88;5110107;28;20040;-71
2021/01/14 08:29:40;;;;;;;14.60;5.28;;;;;;;0.58;71.78;96189.59;5109787;28;20047;-71
2021/01/14 08:32:40;;;;;;;14.90;6.05;;;;;;;0.52;71.89;96186.06;5105597;28;20505;-71
2021/01/14 08:35:09;;;;;;;14.23;5.13;;;;;;;0.60;71.95;96183.97;5089257;28;20051;-70
2021/01/14 08:37:37;;;;;;;12.85;5.07;;;;;;;0.57;71.34;96201.34;5089416;28;20044;-70
2021/01/14 08:40:08;;;;;;;68.25;17.95;;;;;;;0.62;70.42;96196.00;5087928;28;20047;-72
2021/01/14 08:42:38;;;;;;;19.15;5.95;;;;;;;0.46;69.72;96205.03;5112021;28;20047;-73
2021/01/14 08:45:14;;;;;;;13.63;5.25;;;;;;;0.50;69.08;96203.44;5113558;28;20044;-72
2021/01/14 08:47:55;;;;;;;16.25;5.55;;;;;;;0.49;69.65;96212.56;5112510;28;20051;-70
2021/01/14 08:50:33;;;;;;;14.98;4.85;;;;;;;0.53;68.85;96210.97;5111941;28;20044;-71
2021/01/14 08:53:01;;;;;;;14.48;4.80;;;;;;;0.50;67.92;96214.16;5093598;28;20055;-71
2021/01/14 08:55:28;;;;;;;14.85;4.63;;;;;;;0.58;67.85;96215.56;5112907;28;20039;-72
2021/01/14 08:57:56;;;;;;;12.40;4.50;;;;;;;0.62;67.57;96227.38;5113568;28;20048;-71
2021/01/14 09:00:23;;;;;;;14.70;4.80;;;;;;;0.63;67.81;96220.97;5112328;28;20051;-72
2021/01/14 09:02:49;;;;;;;15.75;5.07;;;;;;;0.66;68.42;96223.13;5103261;28;20441;-71
2021/01/14 09:05:15;;;;;;;12.13;4.30;;;;;;;0.69;68.86;96228.78;5091931;28;20048;-72
2021/01/14 09:07:41;;;;;;;13.15;4.68;;;;;;;0.73;68.84;96227.19;5093445;28;20048;-72
2021/01/14 09:10:08;;;;;;;12.73;4.53;;;;;;;0.76;68.70;96245.44;5091598;28;20055;-72
2021/01/14 09:12:35;;;;;;;13.60;5.30;;;;;;;0.77;68.98;96241.69;5093029;28;20044;-71
2021/01/14 09:15:03;;;;;;;12.57;4.90;;;;;;;0.77;69.46;96260.44;5092382;28;20055;-72
2021/01/14 09:17:30;;;;;;;15.15;5.32;;;;;;;0.85;69.50;96263.72;5092663;28;20044;-71
2021/01/14 09:19:57;;;;;;;10.25;4.63;;;;;;;0.90;69.95;96263.75;5100707;28;20062;-72
2021/01/14 09:22:26;;;;;;;15.95;5.45;;;;;;;0.89;70.02;96262.13;5112146;28;20044;-72
2021/01/14 09:24:52;;;;;;;14.27;4.65;;;;;;;0.94;69.49;96259.47;5113600;28;20048;-71
2021/01/14 09:27:18;;;;;;;13.57;5.05;;;;;;;1.00;69.14;96280.72;5111720;28;20043;-71
2021/01/14 09:29:44;;;;;;;13.23;5.88;;;;;;;0.95;68.89;96283.34;5095159;28;20081;-72
2021/01/14 09:32:12;;;;;;;13.48;4.78;;;;;;;1.01;69.00;96293.03;5106260;28;20044;-72
2021/01/14 09:34:38;;;;;;;14.88;5.60;;;;;;;1.11;68.83;96289.63;5074856;28;20048;-72
2021/01/14 09:37:05;;;;;;;20.80;7.53;;;;;;;1.15;68.43;96289.88;5091943;28;20040;-73
2021/01/14 09:39:32;;;;;;;15.57;5.78;;;;;;;1.18;68.20;96294.75;5092113;28;20101;-72
2021/01/14 09:41:58;;;;;;;10.85;4.70;;;;;;;1.13;68.00;96300.88;5092547;28;20048;-72
2021/01/14 09:44:29;;;;;;;25.05;6.78;;;;;;;1.19;68.10;96299.84;5090923;28;20071;-71
2021/01/14 09:46:56;;;;;;;15.38;5.95;;;;;;;1.18;67.87;96300.91;5093003;28;20075;-73
2021/01/14 09:49:24;;;;;;;18.55;7.13;;;;;;;1.21;67.58;96307.66;5093952;28;20035;-73
2021/01/14 09:51:51;;;;;;;11.35;4.50;;;;;;;1.15;67.11;96304.13;5112525;28;20051;-72
2021/01/14 09:54:19;;;;;;;12.15;4.55;;;;;;;1.16;67.21;96321.84;5111608;28;20435;-72
2021/01/14 09:56:48;;;;;;;15.82;5.10;;;;;;;1.12;67.66;96325.28;5112993;28;20304;-72
2021/01/14 09:59:19;;;;;;;10.70;4.85;;;;;;;1.06;67.98;96321.78;5111042;28;20036;-71
2021/01/14 10:01:50;;;;;;;17.95;5.78;;;;;;;1.12;67.41;96323.41;5110749;28;20058;-71
2021/01/14 10:04:21;;;;;;;11.57;4.10;;;;;;;1.04;66.29;96321.19;5091859;28;20060;-71
2021/01/14 10:06:53;;;;;;;15.30;5.13;;;;;;;1.04;65.67;96324.72;5091275;28;20044;-70
2021/01/14 10:09:20;;;;;;;12.77;4.05;;;;;;;1.02;65.47;96326.03;5092335;28;20051;-72
2021/01/14 10:11:46;;;;;;;10.30;3.95;;;;;;;1.07;66.39;96323.38;5091264;28;20052;-71
2021/01/14 10:14:17;;;;;;;11.65;3.90;;;;;;;1.09;66.95;96323.13;5091817;28;20048;-71
2021/01/14 10:16:43;;;;;;;11.13;4.28;;;;;;;1.09;66.16;96320.44;5089935;28;20522;-70
2021/01/14 10:19:11;;;;;;;12.88;4.60;;;;;;;1.08;66.81;96334.91;5092292;28;20055;-71
2021/01/14 10:21:38;;;;;;;14.80;4.28;;;;;;;1.00;66.53;96338.91;5111924;28;20093;-72
2021/01/14 10:24:18;;;;;;;12.18;3.92;;;;;;;1.05;65.94;96336.25;5110996;28;20073;-72
2021/01/14 10:26:44;;;;;;;12.98;4.50;;;;;;;1.07;67.07;96338.66;5112394;28;20085;-71
2021/01/14 10:29:10;;;;;;;9.15;3.60;;;;;;;0.97;67.09;96355.47;5110714;28;20051;-72
2021/01/14 10:31:38;;;;;;;12.10;3.80;;;;;;;0.96;67.52;96359.25;5112043;28;20089;-71
2021/01/14 10:34:06;;;;;;;9.20;3.90;;;;;;;0.95;67.45;96349.59;5090311;28;20055;-72
2021/01/14 10:36:44;;;;;;;13.57;4.18;;;;;;;0.96;67.35;96343.16;5091390;28;20052;-70
2021/01/14 10:39:11;;;;;;;9.13;2.90;;;;;;;0.97;66.96;96350.94;5090575;28;20048;-71
2021/01/14 10:41:37;;;;;;;10.23;3.10;;;;;;;0.88;66.77;96351.66;5090797;28;20048;-72
2021/01/14 10:44:05;;;;;;;10.93;3.58;;;;;;;0.82;66.73;96353.50;5090716;28;20044;-72
2021/01/14 10:46:31;;;;;;;12.48;3.45;;;;;;;0.81;67.29;96349.19;5089916;28;20048;-70
2021/01/14 10:49:08;;;;;;;10.60;2.95;;;;;;;0.71;67.22;96351.78;5091562;28;20048;-71
2021/01/14 10:51:34;;;;;;;11.35;3.47;;;;;;;0.69;67.88;96360.09;5090201;28;20035;-70
2021/01/14 10:54:00;;;;;;;13.88;3.60;;;;;;;0.74;67.96;96352.09;5091345;28;20564;-70
2021/01/14 10:56:27;;;;;;;7.70;2.78;;;;;;;0.75;67.98;96353.72;5089338;28;20028;-71
2021/01/14 10:58:57;;;;;;;13.75;4.15;;;;;;;0.82;67.82;96352.69;5091207;28;20056;-70
2021/01/14 11:01:24;;;;;;;10.65;3.55;;;;;;;0.81;68.08;96357.25;5089849;28;20127;-70
2021/01/14 11:03:50;;;;;;;12.30;3.67;;;;;;;0.75;68.22;96366.31;5091915;28;20048;-70
2021/01/14 11:06:29;;;;;;;7.55;2.60;;;;;;;0.86;67.51;96372.56;5090538;28;20059;-71
2021/01/14 11:09:00;;;;;;;13.35;3.58;;;;;;;0.86;67.24;96369.88;5089923;28;20071;-70
2021/01/14 11:11:27;;;;;;;8.70;2.55;;;;;;;0.81;66.49;96372.50;5090860;28;20131;-70
2021/01/14 11:13:53;;;;;;;8.88;2.70;;;;;;;0.77;66.59;96372.22;5088381;28;20700;-70
2021/01/14 11:16:20;;;;;;;6.88;2.60;;;;;;;0.84;67.44;96355.94;5090883;28;20044;-70
2021/01/14 11:18:48;;;;;;;14.32;2.50;;;;;;;0.80;66.28;96365.53;5090056;28;20037;-70
2021/01/14 11:21:16;;;;;;;20.98;5.28;;;;;;;0.74;66.53;96376.22;5106605;28;20434;-69
2021/01/14 11:23:42;;;;;;;10.75;2.78;;;;;;;0.73;66.08;96361.22;5107128;28;20502;-70
2021/01/14 11:26:08;;;;;;;17.40;4.18;;;;;;;0.75;67.20;96372.47;5104045;28;20252;-70
2021/01/14 11:28:38;;;;;;;13.90;3.35;;;;;;;0.86;67.16;96369.88;5106597;28;20047;-70
2021/01/14 11:31:05;;;;;;;15.30;4.10;;;;;;;0.94;66.32;96367.53;5105829;28;20050;-70
2021/01/14 11:33:31;;;;;;;13.50;3.38;;;;;;;1.01;66.65;96367.31;5107162;28;20069;-70
2021/01/14 11:35:57;;;;;;;14.23;3.55;;;;;;;1.05;66.24;96371.13;5106921;28;20051;-70
2021/01/14 11:38:23;;;;;;;10.70;3.28;;;;;;;1.00;66.10;96371.06;5107407;28;20040;-70
2021/01/14 11:40:50;;;;;;;12.57;3.05;;;;;;;1.00;66.23;96376.44;5106628;28;20510;-70